createdAt,value
2022-08-14T00:00:25.898Z,34.69
2022-08-14T00:01:03.920Z,34.59
2022-08-14T00:01:54.463Z,34.78
2022-08-14T00:02:31.283Z,34.59
2022-08-14T00:03:04.178Z,34.80
2022-08-14T00:03:40.643Z,34.81
2022-08-14T00:04:34.059Z,34.94
2022-08-14T00:05:10.473Z,34.50
2022-08-14T00:05:44.273Z,34.65
2022-08-14T00:06:28.375Z,34.52
2022-08-14T00:07:01.726Z,34.68
2022-08-14T00:07:35.610Z,34.64
2022-08-14T00:08:43.516Z,34.62
2022-08-14T00:09:11.949Z,34.62
2022-08-14T00:10:02.484Z,34.77
2022-08-14T00:10:52.533Z,34.62
2022-08-14T00:11:31.305Z,34.52
2022-08-14T00:12:06.088Z,34.39
2022-08-14T00:12:56.854Z,34.77
2022-08-14T00:13:32.914Z,34.74
2022-08-14T00:14:05.822Z,34.53
2022-08-14T00:14:38.498Z,34.33
2022-08-14T00:15:15.766Z,34.59
2022-08-14T00:15:49.710Z,34.72
2022-08-14T00:16:41.499Z,34.77
2022-08-14T00:17:17.345Z,34.70
2022-08-14T00:17:54.050Z,34.55
2022-08-14T00:19:05.535Z,34.33
2022-08-14T00:19:25.617Z,34.47
2022-08-14T00:19:59.817Z,34.79
2022-08-14T00:20:41.160Z,34.79
2022-08-14T00:21:18.342Z,34.57
2022-08-14T00:21:55.356Z,34.38
2022-08-14T00:22:56.777Z,34.31
2022-08-14T00:23:23.238Z,34.53
2022-08-14T00:23:57.134Z,34.40
2022-08-14T00:24:34.277Z,34.45
2022-08-14T00:25:11.354Z,34.54
2022-08-14T00:25:54.061Z,34.52
2022-08-14T00:26:34.185Z,34.51
2022-08-14T00:27:06.649Z,34.52
2022-08-14T00:27:38.991Z,34.29
2022-08-14T00:28:18.325Z,34.46
2022-08-14T00:28:51.061Z,34.63
2022-08-14T00:29:25.201Z,34.32
2022-08-14T00:30:00.646Z,34.55
2022-08-14T00:30:32.963Z,34.67
2022-08-14T00:31:08.106Z,34.25
2022-08-14T00:31:45.778Z,34.45
2022-08-14T00:32:52.811Z,34.64
2022-08-14T00:33:15.378Z,34.47
2022-08-14T00:33:51.779Z,34.45
2022-08-14T00:34:36.990Z,34.47
2022-08-14T00:35:21.393Z,34.47
2022-08-14T00:36:36.498Z,34.29
2022-08-14T00:37:00.491Z,34.28
2022-08-14T00:37:34.602Z,34.11
2022-08-14T00:38:08.254Z,34.40
2022-08-14T00:38:43.226Z,34.27
2022-08-14T00:39:18.216Z,34.35
2022-08-14T00:39:51.371Z,33.96
2022-08-14T00:40:33.590Z,34.21
2022-08-14T00:41:10.892Z,34.18
2022-08-14T00:41:46.399Z,34.36
2022-08-14T00:42:52.757Z,34.35
2022-08-14T00:43:12.827Z,34.39
2022-08-14T00:43:49.962Z,34.38
2022-08-14T00:44:32.208Z,34.42
2022-08-14T00:45:09.177Z,34.47
2022-08-14T00:45:51.670Z,33.98
2022-08-14T00:46:33.338Z,34.03
2022-08-14T00:47:10.589Z,34.19
2022-08-14T00:47:45.486Z,33.92
2022-08-14T00:48:34.263Z,34.52
2022-08-14T00:49:14.660Z,34.06
2022-08-14T00:49:50.769Z,34.29
2022-08-14T00:50:23.371Z,34.01
2022-08-14T00:51:00.918Z,34.10
2022-08-14T00:51:36.734Z,34.04
2022-08-14T00:52:10.961Z,34.17
2022-08-14T00:52:50.877Z,33.93
2022-08-14T00:53:25.576Z,34.02
2022-08-14T00:53:58.584Z,34.10
2022-08-14T00:54:33.633Z,34.23
2022-08-14T00:55:08.450Z,33.98
2022-08-14T00:55:49.416Z,34.07
2022-08-14T00:56:21.998Z,34.07
2022-08-14T00:57:04.261Z,33.88
2022-08-14T00:57:39.875Z,34.00
2022-08-14T00:58:32.472Z,33.99
2022-08-14T00:59:06.065Z,33.82
2022-08-14T00:59:43.658Z,33.91
2022-08-14T01:00:34.313Z,34.16
2022-08-14T01:01:16.738Z,34.07
2022-08-14T01:01:49.567Z,33.92
2022-08-14T01:02:27.609Z,34.06
2022-08-14T01:03:03.428Z,34.11
2022-08-14T01:03:39.712Z,34.21
2022-08-14T01:04:51.459Z,33.93
2022-08-14T01:05:23.628Z,33.92
2022-08-14T01:05:57.986Z,33.74
2022-08-14T01:06:34.224Z,33.89
2022-08-14T01:07:10.169Z,34.14
2022-08-14T01:07:50.349Z,34.08
2022-08-14T01:08:52.091Z,34.24
2022-08-14T01:09:26.754Z,33.82
2022-08-14T01:10:02.279Z,34.07
2022-08-14T01:10:53.222Z,33.94
2022-08-14T01:11:31.574Z,34.06
2022-08-14T01:12:09.185Z,34.08
2022-08-14T01:12:43.795Z,34.11
2022-08-14T01:13:21.201Z,34.01
2022-08-14T01:14:00.998Z,33.97
2022-08-14T01:14:36.433Z,34.24
2022-08-14T01:15:14.867Z,34.07
2022-08-14T01:15:58.591Z,33.99
2022-08-14T01:16:37.841Z,34.11
2022-08-14T01:17:10.252Z,33.99
2022-08-14T01:18:04.952Z,34.12
2022-08-14T01:18:56.207Z,33.97
2022-08-14T01:19:49.684Z,34.35
2022-08-14T01:20:40.999Z,33.77
2022-08-14T01:21:17.942Z,33.97
2022-08-14T01:21:53.760Z,34.12
2022-08-14T01:22:26.641Z,33.85
2022-08-14T01:23:02.502Z,33.71
2022-08-14T01:23:46.858Z,34.21
2022-08-14T01:24:24.777Z,33.92
2022-08-14T01:25:04.274Z,34.18
2022-08-14T01:25:40.109Z,33.99
2022-08-14T01:26:23.252Z,33.73
2022-08-14T01:27:07.354Z,33.89
2022-08-14T01:27:56.737Z,34.21
2022-08-14T01:28:46.562Z,34.06
2022-08-14T01:29:48.648Z,33.84
2022-08-14T01:30:26.566Z,33.91
2022-08-14T01:30:59.923Z,33.92
2022-08-14T01:31:38.855Z,33.91
2022-08-14T01:32:11.287Z,33.86
2022-08-14T01:32:51.391Z,33.84
2022-08-14T01:33:29.137Z,33.72
2022-08-14T01:35:20.561Z,33.86
2022-08-14T01:35:20.849Z,33.92
2022-08-14T01:36:05.405Z,33.46
2022-08-14T01:36:46.422Z,33.75
2022-08-14T01:37:24.790Z,33.74
2022-08-14T01:37:58.992Z,33.83
2022-08-14T01:38:34.420Z,33.50
2022-08-14T01:39:14.310Z,33.79
2022-08-14T01:39:46.745Z,33.49
2022-08-14T01:40:25.799Z,33.70
2022-08-14T01:41:14.743Z,33.79
2022-08-14T01:41:58.253Z,33.97
2022-08-14T01:42:36.161Z,33.77
2022-08-14T01:43:15.859Z,33.63
2022-08-14T01:43:56.570Z,33.69
2022-08-14T01:44:33.712Z,33.63
2022-08-14T01:45:12.816Z,33.45
2022-08-14T01:45:57.801Z,33.77
2022-08-14T01:46:41.474Z,33.40
2022-08-14T01:47:22.079Z,33.56
2022-08-14T01:48:03.444Z,33.57
2022-08-14T01:48:37.373Z,33.84
2022-08-14T01:49:15.356Z,33.53
2022-08-14T01:49:59.653Z,33.58
2022-08-14T01:50:34.111Z,33.70
2022-08-14T01:51:19.002Z,33.60
2022-08-14T01:51:56.990Z,33.54
2022-08-14T01:52:59.857Z,33.63
2022-08-14T01:53:35.695Z,33.54
2022-08-14T01:54:14.176Z,33.63
2022-08-14T01:54:46.817Z,33.45
2022-08-14T01:55:32.493Z,33.78
2022-08-14T01:56:12.123Z,33.57
2022-08-14T01:56:55.772Z,33.50
2022-08-14T01:57:49.697Z,33.52
2022-08-14T01:58:28.871Z,33.50
2022-08-14T01:59:07.065Z,33.63
2022-08-14T01:59:44.717Z,33.59
2022-08-14T02:00:18.826Z,33.50
2022-08-14T02:00:56.486Z,33.55
2022-08-14T02:01:29.478Z,33.67
2022-08-14T02:02:14.711Z,33.73
2022-08-14T02:02:54.958Z,33.58
2022-08-14T02:03:30.817Z,33.85
2022-08-14T02:04:03.682Z,33.70
2022-08-14T02:04:40.686Z,33.61
2022-08-14T02:05:35.644Z,33.35
2022-08-14T02:06:32.345Z,33.38
2022-08-14T02:07:07.112Z,33.74
2022-08-14T02:08:08.557Z,33.58
2022-08-14T02:08:52.497Z,33.77
2022-08-14T02:09:28.484Z,33.77
2022-08-14T02:10:06.499Z,33.50
2022-08-14T02:10:46.739Z,33.57
2022-08-14T02:11:22.594Z,33.71
2022-08-14T02:11:57.560Z,33.57
2022-08-14T02:12:31.042Z,33.62
2022-08-14T02:13:08.327Z,33.38
2022-08-14T02:13:40.814Z,33.36
2022-08-14T02:14:31.647Z,33.56
2022-08-14T02:15:05.203Z,33.30
2022-08-14T02:15:41.448Z,33.57
2022-08-14T02:16:26.419Z,33.71
2022-08-14T02:16:59.145Z,33.34
2022-08-14T02:17:34.353Z,33.53
2022-08-14T02:18:09.610Z,33.67
2022-08-14T02:18:42.144Z,33.46
2022-08-14T02:19:22.478Z,33.35
2022-08-14T02:19:55.953Z,33.71
2022-08-14T02:20:30.025Z,33.51
2022-08-14T02:21:04.481Z,33.57
2022-08-14T02:21:43.489Z,33.57
2022-08-14T02:22:32.733Z,33.81
2022-08-14T02:23:09.046Z,33.66
2022-08-14T02:23:44.074Z,33.52
2022-08-14T02:24:39.043Z,33.52
2022-08-14T02:25:16.696Z,33.68
2022-08-14T02:25:54.591Z,33.47
2022-08-14T02:26:30.872Z,33.31
2022-08-14T02:28:23.364Z,33.48
2022-08-14T02:28:23.806Z,33.20
2022-08-14T02:28:57.141Z,33.54
2022-08-14T02:29:59.397Z,33.59
2022-08-14T02:30:31.352Z,33.56
2022-08-14T02:31:03.927Z,33.57
2022-08-14T02:31:44.097Z,33.45
2022-08-14T02:32:30.597Z,33.64
2022-08-14T02:33:09.245Z,33.35
2022-08-14T02:33:43.609Z,33.40
2022-08-14T02:34:26.070Z,33.60
2022-08-14T02:35:00.847Z,33.35
2022-08-14T02:35:33.460Z,33.59
2022-08-14T02:37:03.422Z,33.33
2022-08-14T02:37:10.077Z,33.47
2022-08-14T02:37:47.949Z,33.46
2022-08-14T02:38:30.243Z,33.70
2022-08-14T02:39:05.771Z,33.31
2022-08-14T02:39:40.488Z,33.21
2022-08-14T02:40:12.952Z,33.45
2022-08-14T02:40:48.937Z,33.60
2022-08-14T02:41:22.134Z,33.53
2022-08-14T02:42:00.814Z,33.51
2022-08-14T02:42:39.426Z,33.49
2022-08-14T02:43:12.908Z,33.35
2022-08-14T02:43:46.204Z,33.81
2022-08-14T02:44:29.591Z,33.58
2022-08-14T02:45:02.374Z,33.22
2022-08-14T02:45:38.713Z,33.47
2022-08-14T02:46:27.015Z,33.48
2022-08-14T02:47:07.129Z,34.57
2022-08-14T02:47:57.301Z,34.30
2022-08-14T02:49:01.485Z,34.60
2022-08-14T02:49:33.942Z,34.87
2022-08-14T02:50:08.200Z,34.84
2022-08-14T02:50:42.174Z,34.71
2022-08-14T02:51:30.438Z,34.96
2022-08-14T02:52:26.560Z,34.99
2022-08-14T02:53:02.826Z,35.23
2022-08-14T02:53:45.402Z,34.75
2022-08-14T02:54:19.875Z,34.96
2022-08-14T02:54:52.604Z,35.44
2022-08-14T02:55:27.676Z,35.19
2022-08-14T02:56:03.236Z,35.06
2022-08-14T02:57:16.396Z,35.35
2022-08-14T02:58:02.940Z,35.48
2022-08-14T02:58:42.332Z,35.43
2022-08-14T02:59:16.102Z,35.40
2022-08-14T02:59:49.493Z,35.71
2022-08-14T03:00:26.019Z,35.63
2022-08-14T03:01:02.315Z,35.50
2022-08-14T03:01:50.433Z,35.65
2022-08-14T03:02:48.777Z,35.87
2022-08-14T03:03:23.790Z,35.93
2022-08-14T03:04:00.628Z,35.74
2022-08-14T03:04:33.142Z,35.79
2022-08-14T03:05:07.565Z,36.03
2022-08-14T03:05:42.758Z,35.59
2022-08-14T03:06:20.619Z,35.70
2022-08-14T03:07:10.210Z,35.71
2022-08-14T03:07:42.539Z,35.58
2022-08-14T03:08:15.191Z,35.68
2022-08-14T03:08:54.141Z,35.42
2022-08-14T03:09:41.664Z,35.71
2022-08-14T03:10:32.350Z,35.71
2022-08-14T03:11:09.605Z,35.81
2022-08-14T03:11:45.078Z,35.53
2022-08-14T03:12:31.458Z,35.97
2022-08-14T03:13:06.332Z,35.94
2022-08-14T03:13:51.685Z,35.71
2022-08-14T03:14:28.757Z,35.39
2022-08-14T03:15:14.170Z,35.49
2022-08-14T03:15:55.231Z,35.53
2022-08-14T03:16:36.386Z,35.58
2022-08-14T03:17:15.340Z,35.66
2022-08-14T03:17:57.542Z,35.72
2022-08-14T03:18:33.462Z,35.85
2022-08-14T03:19:07.904Z,35.84
2022-08-14T03:19:44.265Z,35.46
2022-08-14T03:20:19.928Z,35.36
2022-08-14T03:20:55.149Z,35.62
2022-08-14T03:21:34.411Z,35.40
2022-08-14T03:22:17.849Z,35.63
2022-08-14T03:22:51.610Z,35.71
2022-08-14T03:23:23.981Z,35.69
2022-08-14T03:24:21.707Z,35.71
2022-08-14T03:24:55.773Z,35.44
2022-08-14T03:25:31.197Z,35.73
2022-08-14T03:26:08.798Z,35.70
2022-08-14T03:26:47.593Z,35.52
2022-08-14T03:27:35.461Z,35.55
2022-08-14T03:28:32.931Z,35.50
2022-08-14T03:29:13.878Z,35.64
2022-08-14T03:29:49.971Z,35.81
2022-08-14T03:30:39.554Z,35.66
2022-08-14T03:31:16.055Z,35.87
2022-08-14T03:31:51.362Z,35.78
2022-08-14T03:32:30.522Z,35.76
2022-08-14T03:33:08.170Z,35.54
2022-08-14T03:33:41.232Z,35.62
2022-08-14T03:34:24.374Z,35.88
2022-08-14T03:35:09.520Z,35.79
2022-08-14T03:37:28.368Z,35.54
2022-08-14T03:37:39.395Z,35.63
2022-08-14T03:39:10.382Z,35.98
2022-08-14T03:39:12.372Z,35.67
2022-08-14T03:39:40.589Z,36.00
2022-08-14T03:40:18.304Z,35.71
2022-08-14T03:40:51.041Z,35.76
2022-08-14T03:41:28.794Z,35.49
2022-08-14T03:42:19.188Z,35.78
2022-08-14T03:42:55.290Z,35.71
2022-08-14T03:43:32.615Z,35.75
2022-08-14T03:45:18.931Z,35.98
2022-08-14T03:45:19.030Z,35.76
2022-08-14T03:46:01.326Z,35.69
2022-08-14T03:46:54.446Z,35.67
2022-08-14T03:47:50.468Z,35.69
2022-08-14T03:48:30.166Z,35.86
2022-08-14T03:49:07.362Z,35.68
2022-08-14T03:49:49.712Z,35.71
2022-08-14T03:50:31.393Z,35.61
2022-08-14T03:51:10.358Z,35.65
2022-08-14T03:51:44.238Z,35.70
2022-08-14T03:52:38.110Z,35.40
2022-08-14T03:53:15.076Z,35.69
2022-08-14T03:53:48.099Z,35.62
2022-08-14T03:54:21.953Z,35.79
2022-08-14T03:54:59.805Z,35.64
2022-08-14T03:55:32.151Z,35.97
2022-08-14T03:56:06.353Z,35.67
2022-08-14T03:56:45.344Z,35.50
2022-08-14T03:57:23.864Z,35.61
2022-08-14T03:57:56.269Z,35.35
2022-08-14T03:58:36.764Z,35.42
2022-08-14T03:59:18.089Z,35.65
2022-08-14T03:59:50.816Z,35.54
2022-08-14T04:00:43.426Z,35.88
2022-08-14T04:01:19.574Z,35.77
2022-08-14T04:01:53.927Z,35.55
2022-08-14T04:02:37.429Z,35.69
2022-08-14T04:03:10.832Z,35.38
2022-08-14T04:03:43.220Z,35.84
2022-08-14T04:04:18.621Z,35.88
2022-08-14T04:04:51.481Z,35.47
2022-08-14T04:05:23.863Z,35.66
2022-08-14T04:05:59.067Z,35.43
2022-08-14T04:06:33.976Z,35.88
2022-08-14T04:07:14.958Z,35.91
2022-08-14T04:08:10.833Z,35.65
2022-08-14T04:08:46.404Z,35.89
2022-08-14T04:09:24.450Z,35.56
2022-08-14T04:10:04.794Z,35.56
2022-08-14T04:10:38.616Z,35.64
2022-08-14T04:11:20.781Z,35.40
2022-08-14T04:11:53.096Z,35.49
2022-08-14T04:12:26.174Z,35.42
2022-08-14T04:13:03.572Z,35.82
2022-08-14T04:13:39.477Z,35.76
2022-08-14T04:14:16.933Z,35.62
2022-08-14T04:14:49.289Z,35.71
2022-08-14T04:15:23.541Z,35.80
2022-08-14T04:16:01.939Z,35.91
2022-08-14T04:16:37.310Z,35.38
2022-08-14T04:17:14.501Z,35.86
2022-08-14T04:17:48.131Z,35.47
2022-08-14T04:18:21.976Z,35.76
2022-08-14T04:19:02.337Z,35.71
2022-08-14T04:19:36.478Z,35.80
2022-08-14T04:20:10.137Z,35.73
2022-08-14T04:20:54.982Z,35.70
2022-08-14T04:21:30.808Z,35.68
2022-08-14T04:22:16.608Z,35.59
2022-08-14T04:22:51.271Z,35.72
2022-08-14T04:23:29.373Z,35.96
2022-08-14T04:24:07.994Z,35.71
2022-08-14T04:24:42.129Z,35.67
2022-08-14T04:25:17.394Z,35.84
2022-08-14T04:25:54.107Z,35.58
2022-08-14T04:26:42.693Z,35.83
2022-08-14T04:27:18.539Z,35.54
2022-08-14T04:28:02.178Z,35.89
2022-08-14T04:29:05.461Z,35.76
2022-08-14T04:29:32.680Z,35.74
2022-08-14T04:30:07.034Z,35.56
2022-08-14T04:30:42.221Z,36.03
2022-08-14T04:31:17.262Z,35.60
2022-08-14T04:32:58.522Z,36.06
2022-08-14T04:33:13.470Z,36.13
2022-08-14T04:33:44.799Z,35.91
2022-08-14T04:34:24.089Z,35.79
2022-08-14T04:35:07.229Z,35.93
2022-08-14T04:35:55.274Z,35.84
2022-08-14T04:36:29.279Z,35.66
2022-08-14T04:37:22.227Z,35.76
2022-08-14T04:38:36.442Z,35.56
2022-08-14T04:39:19.916Z,35.84
2022-08-14T04:40:08.834Z,36.08
2022-08-14T04:40:58.876Z,35.50
2022-08-14T04:41:47.546Z,36.02
2022-08-14T04:42:34.805Z,35.84
2022-08-14T04:43:25.550Z,35.80
2022-08-14T04:44:00.533Z,36.06
2022-08-14T04:44:36.758Z,35.90
2022-08-14T04:45:09.895Z,35.60
2022-08-14T04:45:44.890Z,36.07
2022-08-14T04:46:56.025Z,35.65
2022-08-14T04:47:38.266Z,36.15
2022-08-14T04:48:38.855Z,35.98
2022-08-14T04:49:15.246Z,36.02
2022-08-14T04:49:56.895Z,35.71
2022-08-14T04:50:44.860Z,36.25
2022-08-14T04:51:22.501Z,36.01
2022-08-14T04:51:56.408Z,36.02
2022-08-14T04:52:28.951Z,36.03
2022-08-14T04:53:01.265Z,36.23
2022-08-14T04:53:42.753Z,36.33
2022-08-14T04:54:17.264Z,35.77
2022-08-14T04:54:49.645Z,36.28
2022-08-14T04:55:24.601Z,36.13
2022-08-14T04:56:03.415Z,35.85
2022-08-14T04:56:41.121Z,35.98
2022-08-14T04:57:15.073Z,36.22
2022-08-14T04:57:49.094Z,36.04
2022-08-14T04:58:32.921Z,36.38
2022-08-14T04:59:10.287Z,36.35
2022-08-14T04:59:46.008Z,36.08
2022-08-14T05:00:18.405Z,36.06
2022-08-14T05:00:52.128Z,36.04
2022-08-14T05:01:27.529Z,36.09
2022-08-14T05:02:00.261Z,36.20
2022-08-14T05:02:34.780Z,36.45
2022-08-14T05:03:11.490Z,36.13
2022-08-14T05:03:44.410Z,36.15
2022-08-14T05:04:20.242Z,35.88
2022-08-14T05:04:56.893Z,36.15
2022-08-14T05:05:32.269Z,36.36
2022-08-14T05:06:07.426Z,36.43
2022-08-14T05:07:02.069Z,36.16
2022-08-14T05:07:54.324Z,36.45
2022-08-14T05:08:32.251Z,36.27
2022-08-14T05:09:21.894Z,36.26
2022-08-14T05:09:54.242Z,36.31
2022-08-14T05:10:32.145Z,36.23
2022-08-14T05:11:12.023Z,35.97
2022-08-14T05:11:46.093Z,36.25
2022-08-14T05:13:11.239Z,36.23
2022-08-14T05:13:15.829Z,36.58
2022-08-14T05:14:53.186Z,36.31
2022-08-14T05:15:29.577Z,36.18
2022-08-14T05:16:06.839Z,36.16
2022-08-14T05:16:46.840Z,36.29
2022-08-14T05:17:19.716Z,36.57
2022-08-14T05:18:03.795Z,36.36
2022-08-14T05:19:18.182Z,36.40
2022-08-14T05:21:57.724Z,36.41
2022-08-14T05:21:57.919Z,36.65
2022-08-14T05:22:00.223Z,36.61
2022-08-14T05:22:26.994Z,36.56
2022-08-14T05:22:59.938Z,36.28
2022-08-14T05:23:35.561Z,36.69
2022-08-14T05:24:17.478Z,36.30
2022-08-14T05:24:51.324Z,36.59
2022-08-14T05:25:23.861Z,36.36
2022-08-14T05:26:02.024Z,36.59
2022-08-14T05:26:40.570Z,36.54
2022-08-14T05:27:14.735Z,36.74
2022-08-14T05:27:49.846Z,36.87
2022-08-14T05:28:28.394Z,36.40
2022-08-14T05:29:03.342Z,36.83
2022-08-14T05:29:45.076Z,36.59
2022-08-14T05:30:19.766Z,36.54
2022-08-14T05:30:56.201Z,36.64
2022-08-14T05:31:39.373Z,36.59
2022-08-14T05:32:13.558Z,36.69
2022-08-14T05:32:50.311Z,36.62
2022-08-14T05:33:24.868Z,36.67
2022-08-14T05:33:57.286Z,36.75
2022-08-14T05:34:32.643Z,36.76
2022-08-14T05:35:06.680Z,36.97
2022-08-14T05:35:42.428Z,36.46
2022-08-14T05:36:17.737Z,36.57
2022-08-14T05:36:50.749Z,36.62
2022-08-14T05:37:34.898Z,36.72
2022-08-14T05:38:11.053Z,36.74
2022-08-14T05:39:03.949Z,36.86
2022-08-14T05:39:39.012Z,37.15
2022-08-14T05:40:13.495Z,37.07
2022-08-14T05:40:47.009Z,36.88
2022-08-14T05:41:22.382Z,36.57
2022-08-14T05:41:57.345Z,36.98
2022-08-14T05:42:33.914Z,36.83
2022-08-14T05:43:09.466Z,36.63
2022-08-14T05:43:47.727Z,36.76
2022-08-14T05:44:21.741Z,37.20
2022-08-14T05:44:54.226Z,36.68
2022-08-14T05:45:31.066Z,37.15
2022-08-14T05:46:03.733Z,36.76
2022-08-14T05:46:39.181Z,36.69
2022-08-14T05:47:14.098Z,37.19
2022-08-14T05:47:50.826Z,37.12
2022-08-14T05:48:33.477Z,36.80
2022-08-14T05:49:09.059Z,37.10
2022-08-14T05:49:41.467Z,37.01
2022-08-14T05:50:17.438Z,37.06
2022-08-14T05:50:55.042Z,37.27
2022-08-14T05:51:28.662Z,37.26
2022-08-14T05:52:09.859Z,37.32
2022-08-14T05:52:42.450Z,37.27
2022-08-14T05:53:17.438Z,37.23
2022-08-14T05:54:01.872Z,37.15
2022-08-14T05:54:42.556Z,36.98
2022-08-14T05:55:22.113Z,37.07
2022-08-14T05:55:56.558Z,37.25
2022-08-14T05:56:29.186Z,37.36
2022-08-14T05:57:07.242Z,37.55
2022-08-14T05:57:49.865Z,37.20
2022-08-14T05:58:23.389Z,37.22
2022-08-14T05:59:16.731Z,36.97
2022-08-14T05:59:49.150Z,37.49
2022-08-14T06:00:28.554Z,37.25
2022-08-14T06:01:03.994Z,37.30
2022-08-14T06:01:38.545Z,37.19
2022-08-14T06:02:13.796Z,37.10
2022-08-14T06:02:48.687Z,37.16
2022-08-14T06:03:22.701Z,36.96
2022-08-14T06:03:59.783Z,37.42
2022-08-14T06:04:32.581Z,37.15
2022-08-14T06:05:05.762Z,37.15
2022-08-14T06:05:43.795Z,37.14
2022-08-14T06:06:16.217Z,37.17
2022-08-14T06:06:48.610Z,37.08
2022-08-14T06:07:20.930Z,37.21
2022-08-14T06:07:57.373Z,37.07
2022-08-14T06:08:41.148Z,37.25
2022-08-14T06:09:16.753Z,37.22
2022-08-14T06:09:51.083Z,37.05
2022-08-14T06:10:25.538Z,37.32
2022-08-14T06:11:05.793Z,37.29
2022-08-14T06:11:38.177Z,37.35
2022-08-14T06:12:13.109Z,37.55
2022-08-14T06:13:07.039Z,37.22
2022-08-14T06:13:45.609Z,37.20
2022-08-14T06:14:21.502Z,37.44
2022-08-14T06:14:59.295Z,37.19
2022-08-14T06:15:31.602Z,37.22
2022-08-14T06:16:04.638Z,37.42
2022-08-14T06:16:42.918Z,37.22
2022-08-14T06:17:25.884Z,37.13
2022-08-14T06:18:00.205Z,37.34
2022-08-14T06:18:36.657Z,37.70
2022-08-14T06:19:11.316Z,37.58
2022-08-14T06:19:50.473Z,37.34
2022-08-14T06:20:25.813Z,37.25
2022-08-14T06:20:58.121Z,37.49
2022-08-14T06:21:31.464Z,37.51
2022-08-14T06:22:08.017Z,37.34
2022-08-14T06:22:41.425Z,37.48
2022-08-14T06:23:13.806Z,37.26
2022-08-14T06:23:49.563Z,37.38
2022-08-14T06:24:21.909Z,37.54
2022-08-14T06:24:54.425Z,37.54
2022-08-14T06:25:30.468Z,37.46
2022-08-14T06:26:03.446Z,37.45
2022-08-14T06:26:35.942Z,37.43
2022-08-14T06:27:15.166Z,37.13
2022-08-14T06:27:49.470Z,37.40
2022-08-14T06:28:27.851Z,37.30
2022-08-14T06:29:03.227Z,37.05
2022-08-14T06:29:36.534Z,37.37
2022-08-14T06:30:12.766Z,37.02
2022-08-14T06:30:50.878Z,36.98
2022-08-14T06:31:23.197Z,36.88
2022-08-14T06:32:00.433Z,36.83
2022-08-14T06:32:52.911Z,36.76
2022-08-14T06:35:01.427Z,36.10
2022-08-14T06:35:04.644Z,36.62
2022-08-14T06:35:14.724Z,36.57
2022-08-14T06:35:50.909Z,36.35
2022-08-14T06:36:23.320Z,36.32
2022-08-14T06:36:56.702Z,36.35
2022-08-14T06:37:41.893Z,36.44
2022-08-14T06:38:17.456Z,36.39
2022-08-14T06:38:54.445Z,36.53
2022-08-14T06:39:36.331Z,36.65
2022-08-14T06:40:25.775Z,36.64
2022-08-14T06:41:03.038Z,36.79
2022-08-14T06:41:59.346Z,37.09
2022-08-14T06:42:34.830Z,36.89
2022-08-14T06:43:11.720Z,37.08
2022-08-14T06:43:48.206Z,37.19
2022-08-14T06:44:21.746Z,37.23
2022-08-14T06:45:06.150Z,36.74
2022-08-14T06:45:40.647Z,36.55
2022-08-14T06:46:32.585Z,36.83
2022-08-14T06:47:09.239Z,36.54
2022-08-14T06:47:44.137Z,36.33
2022-08-14T06:48:21.630Z,36.52
2022-08-14T06:48:54.025Z,36.84
2022-08-14T06:49:27.604Z,36.50
2022-08-14T06:50:05.381Z,36.60
2022-08-14T06:50:41.133Z,36.70
2022-08-14T06:51:17.621Z,36.72
2022-08-14T06:51:53.848Z,37.25
2022-08-14T06:52:26.377Z,37.37
2022-08-14T06:53:04.317Z,37.17
2022-08-14T06:53:37.540Z,37.36
2022-08-14T06:54:09.886Z,37.26
2022-08-14T06:54:44.843Z,37.17
2022-08-14T06:55:20.742Z,37.05
2022-08-14T06:56:01.880Z,37.76
2022-08-14T06:56:37.414Z,36.93
2022-08-14T06:57:10.910Z,36.47
2022-08-14T06:57:46.992Z,36.48
2022-08-14T06:58:28.756Z,36.14
2022-08-14T06:59:01.963Z,36.10
2022-08-14T06:59:37.618Z,35.85
2022-08-14T07:00:22.179Z,35.81
2022-08-14T07:01:14.757Z,35.97
2022-08-14T07:02:03.104Z,35.35
2022-08-14T07:02:50.438Z,35.59
2022-08-14T07:03:40.508Z,35.44
2022-08-14T07:04:30.151Z,35.71
2022-08-14T07:05:23.103Z,35.40
2022-08-14T07:05:58.812Z,35.25
2022-08-14T07:06:45.517Z,35.52
2022-08-14T07:07:22.717Z,35.74
2022-08-14T07:07:57.870Z,36.03
2022-08-14T07:08:34.458Z,35.63
2022-08-14T07:09:10.279Z,35.74
2022-08-14T07:09:50.499Z,35.70
2022-08-14T07:10:26.083Z,35.81
2022-08-14T07:11:01.480Z,35.97
2022-08-14T07:11:33.894Z,35.57
2022-08-14T07:12:54.607Z,35.55
2022-08-14T07:13:05.400Z,35.98
2022-08-14T07:13:40.922Z,35.42
2022-08-14T07:14:14.534Z,35.41
2022-08-14T07:14:48.270Z,35.74
2022-08-14T07:15:23.510Z,35.96
2022-08-14T07:16:05.692Z,35.76
2022-08-14T07:16:40.760Z,35.67
2022-08-14T07:17:14.344Z,35.95
2022-08-14T07:17:52.463Z,35.89
2022-08-14T07:18:30.533Z,35.73
2022-08-14T07:19:02.930Z,35.89
2022-08-14T07:19:35.440Z,35.80
2022-08-14T07:20:11.251Z,36.21
2022-08-14T07:20:46.382Z,36.02
2022-08-14T07:21:21.602Z,36.01
2022-08-14T07:21:54.169Z,36.32
2022-08-14T07:22:32.920Z,36.21
2022-08-14T07:23:21.676Z,36.19
2022-08-14T07:23:55.034Z,36.30
2022-08-14T07:24:31.891Z,36.03
2022-08-14T07:25:07.973Z,36.13
2022-08-14T07:25:43.788Z,36.11
2022-08-14T07:26:19.297Z,36.15
2022-08-14T07:26:52.359Z,36.23
2022-08-14T07:27:25.056Z,35.71
2022-08-14T07:28:01.337Z,35.79
2022-08-14T07:28:43.383Z,35.88
2022-08-14T07:29:22.757Z,36.03
2022-08-14T07:29:58.262Z,36.09
2022-08-14T07:30:34.025Z,35.82
2022-08-14T07:31:11.915Z,36.43
2022-08-14T07:31:44.315Z,36.19
2022-08-14T07:32:22.160Z,36.41
2022-08-14T07:33:09.164Z,36.18
2022-08-14T07:33:49.972Z,35.91
2022-08-14T07:34:36.291Z,36.16
2022-08-14T07:35:13.441Z,36.28
2022-08-14T07:35:57.534Z,36.35
2022-08-14T07:36:33.760Z,36.47
2022-08-14T07:37:06.787Z,36.64
2022-08-14T07:37:39.068Z,36.28
2022-08-14T07:38:21.113Z,36.51
2022-08-14T07:38:53.451Z,36.48
2022-08-14T07:39:28.554Z,36.34
2022-08-14T07:40:01.780Z,36.87
2022-08-14T07:40:34.902Z,36.36
2022-08-14T07:41:14.704Z,36.32
2022-08-14T07:41:48.921Z,36.20
2022-08-14T07:42:22.782Z,36.32
2022-08-14T07:42:57.777Z,35.98
2022-08-14T07:43:55.337Z,36.09
2022-08-14T07:44:35.855Z,36.45
2022-08-14T07:45:19.254Z,36.13
2022-08-14T07:45:53.980Z,36.22
2022-08-14T07:46:30.892Z,36.41
2022-08-14T07:47:04.244Z,36.79
2022-08-14T07:47:41.024Z,36.67
2022-08-14T07:48:16.892Z,36.76
2022-08-14T07:48:53.156Z,36.28
2022-08-14T07:49:28.808Z,36.20
2022-08-14T07:50:02.935Z,36.10
2022-08-14T07:50:37.342Z,35.75
2022-08-14T07:51:12.490Z,35.99
2022-08-14T07:51:44.860Z,36.31
2022-08-14T07:52:21.981Z,36.01
2022-08-14T07:52:57.208Z,36.00
2022-08-14T07:53:29.604Z,36.03
2022-08-14T07:54:11.311Z,35.84
2022-08-14T07:54:46.610Z,35.98
2022-08-14T07:55:20.998Z,35.85
2022-08-14T07:56:00.307Z,36.08
2022-08-14T07:56:48.917Z,35.76
2022-08-14T07:57:25.159Z,36.04
2022-08-14T07:57:57.623Z,35.80
2022-08-14T07:58:34.545Z,36.04
2022-08-14T07:59:14.090Z,35.81
2022-08-14T07:59:49.394Z,35.84
2022-08-14T08:00:29.983Z,35.79
2022-08-14T08:01:04.727Z,36.45
2022-08-14T08:01:37.338Z,36.59
2022-08-14T08:02:18.869Z,36.15
2022-08-14T08:02:55.127Z,36.20
2022-08-14T08:03:33.131Z,36.08
2022-08-14T08:04:16.702Z,36.60
2022-08-14T08:04:55.395Z,36.32
2022-08-14T08:05:34.577Z,36.55
2022-08-14T08:06:10.609Z,36.71
2022-08-14T08:06:51.185Z,36.85
2022-08-14T08:07:30.118Z,36.45
2022-08-14T08:08:04.223Z,36.50
2022-08-14T08:08:41.934Z,36.28
2022-08-14T08:09:23.925Z,36.58
2022-08-14T08:09:57.037Z,36.78
2022-08-14T08:10:57.129Z,36.60
2022-08-14T08:11:30.263Z,36.65
2022-08-14T08:12:09.335Z,36.71
2022-08-14T08:12:46.826Z,37.05
2022-08-14T08:13:24.672Z,36.56
2022-08-14T08:14:03.221Z,36.74
2022-08-14T08:14:56.291Z,36.40
2022-08-14T08:15:36.481Z,36.59
2022-08-14T08:16:09.328Z,36.66
2022-08-14T08:16:41.697Z,36.67
2022-08-14T08:17:15.364Z,36.79
2022-08-14T08:17:53.468Z,36.44
2022-08-14T08:18:27.463Z,36.75
2022-08-14T08:19:10.056Z,36.66
2022-08-14T08:19:49.353Z,36.67
2022-08-14T08:20:27.493Z,36.44
2022-08-14T08:21:02.775Z,36.92
2022-08-14T08:21:39.378Z,36.91
2022-08-14T08:22:16.306Z,37.03
2022-08-14T08:22:55.747Z,36.94
2022-08-14T08:23:34.948Z,36.91
2022-08-14T08:24:19.838Z,36.59
2022-08-14T08:24:53.245Z,36.81
2022-08-14T08:25:27.800Z,37.01
2022-08-14T08:26:03.258Z,37.00